^^
Saratoga-Weather Station Historical Data
Daily Summary for August 07, 2022 Units:  Both    English   Metric
Daily Weekly Monthly Yearly Custom
  High: Low: Average:
Temperature: 83.1 °F /  28.4 °C 57.2 °F /  14 °C 70.3 °F /  21.3 °C
Dew Point: 51.8 °F /  11 °C 45 °F /  7.2 °C 47.5 °F /  8.6 °C
Humidity: 65% 30% 46%
Wind Speed: 11mph /  17.7km/h - 2mph /  3.2km/h
Wind Gust: 11mph /  17.7km/h - -
Wind- - SSW
Pressure: 30.2 in /  1023.4 hPa 30.1 in /  1018.0 hPa -
Precipitation: 0 in /  0.0 mm    
Historical Graphs
 
 
Tabular Data for August 07, 2022
Time Temperature Dew Point Pressure Wind Wind Speed Wind Gust Humidity Rainfall Rate (Hourly) solar
00:02 63.7 °F /  17.6 °C 45.7 °F /  7.6 °C 30.2in /  1023.0hPa WSW 0.9mph /  1.4km/h 3mph /  4.8km/h 52% 0in /  0.0mm 0 W/m2
00:07 63.7 °F /  17.6 °C 45.7 °F /  7.6 °C 30.2in /  1023.4hPa NW 2.9mph /  4.7km/h 9mph /  14.5km/h 52% 0in /  0.0mm 0 W/m2
00:12 63.7 °F /  17.6 °C 46.2 °F /  7.9 °C 30.2in /  1023.4hPa NNW 2mph /  3.2km/h 4mph /  6.4km/h 53% 0in /  0.0mm 0 W/m2
00:17 63.3 °F /  17.4 °C 45.9 °F /  7.7 °C 30.2in /  1023.4hPa West 2.9mph /  4.7km/h 6mph /  9.7km/h 53% 0in /  0.0mm 0 W/m2
00:22 63.3 °F /  17.4 °C 45.9 °F /  7.7 °C 30.2in /  1023.4hPa NW 0.9mph /  1.4km/h 4mph /  6.4km/h 53% 0in /  0.0mm 0 W/m2
00:27 63.1 °F /  17.3 °C 45.7 °F /  7.6 °C 30.2in /  1023.4hPa WSW 2.9mph /  4.7km/h 4mph /  6.4km/h 53% 0in /  0.0mm 0 W/m2
00:32 63.1 °F /  17.3 °C 45.7 °F /  7.6 °C 30.2in /  1023.4hPa WNW 0.9mph /  1.4km/h 4mph /  6.4km/h 53% 0in /  0.0mm 0 W/m2
00:37 63 °F /  17.2 °C 45.5 °F /  7.5 °C 30.2in /  1023.0hPa West 2mph /  3.2km/h 4mph /  6.4km/h 53% 0in /  0.0mm 0 W/m2
00:42 63 °F /  17.2 °C 45.5 °F /  7.5 °C 30.2in /  1023.0hPa WSW 2mph /  3.2km/h 4mph /  6.4km/h 53% 0in /  0.0mm 0 W/m2
00:47 62.8 °F /  17.1 °C 45.3 °F /  7.4 °C 30.2in /  1023.0hPa West 0.9mph /  1.4km/h 5mph /  8km/h 53% 0in /  0.0mm 0 W/m2
00:53 62.8 °F /  17.1 °C 45.3 °F /  7.4 °C 30.2in /  1023.0hPa West 2.9mph /  4.7km/h 6mph /  9.7km/h 53% 0in /  0.0mm 0 W/m2
00:58 62.8 °F /  17.1 °C 45.9 °F /  7.7 °C 30.2in /  1023.0hPa NNW 2.9mph /  4.7km/h 4mph /  6.4km/h 54% 0in /  0.0mm 0 W/m2
01:03 62.6 °F /  17 °C 45.7 °F /  7.6 °C 30.2in /  1023.0hPa Calm   2mph /  3.2km/h 54% 0in /  0.0mm 0 W/m2
01:08 62.6 °F /  17 °C 45.7 °F /  7.6 °C 30.2in /  1023.0hPa WNW 2mph /  3.2km/h 3mph /  4.8km/h 54% 0in /  0.0mm 0 W/m2
01:13 62.4 °F /  16.9 °C 45.5 °F /  7.5 °C 30.2in /  1023.0hPa West 2mph /  3.2km/h 4mph /  6.4km/h 54% 0in /  0.0mm 0 W/m2
01:18 62.2 °F /  16.8 °C 45.3 °F /  7.4 °C 30.2in /  1023.0hPa West 2.9mph /  4.7km/h 4mph /  6.4km/h 54% 0in /  0.0mm 0 W/m2
01:23 62.2 °F /  16.8 °C 45.3 °F /  7.4 °C 30.2in /  1023.0hPa West 2.9mph /  4.7km/h 3mph /  4.8km/h 54% 0in /  0.0mm 0 W/m2
01:28 62.2 °F /  16.8 °C 45.3 °F /  7.4 °C 30.2in /  1023.0hPa West 6mph /  9.7km/h 6mph /  9.7km/h 54% 0in /  0.0mm 0 W/m2
01:33 62.2 °F /  16.8 °C 45.3 °F /  7.4 °C 30.2in /  1023.0hPa WNW 2.9mph /  4.7km/h 4mph /  6.4km/h 54% 0in /  0.0mm 0 W/m2
01:38 62.1 °F /  16.7 °C 45.1 °F /  7.3 °C 30.2in /  1023.0hPa WSW 2mph /  3.2km/h 4mph /  6.4km/h 54% 0in /  0.0mm 0 W/m2
01:43 62.1 °F /  16.7 °C 45.7 °F /  7.6 °C 30.2in /  1023.0hPa Calm   2mph /  3.2km/h 55% 0in /  0.0mm 0 W/m2
01:48 61.9 °F /  16.6 °C 45.5 °F /  7.5 °C 30.2in /  1023.0hPa WNW 2mph /  3.2km/h 3mph /  4.8km/h 55% 0in /  0.0mm 0 W/m2
01:53 61.9 °F /  16.6 °C 45.5 °F /  7.5 °C 30.2in /  1023.0hPa West 2mph /  3.2km/h 4mph /  6.4km/h 55% 0in /  0.0mm 0 W/m2
01:58 61.7 °F /  16.5 °C 45.3 °F /  7.4 °C 30.2in /  1022.7hPa NW 0.9mph /  1.4km/h 4mph /  6.4km/h 55% 0in /  0.0mm 0 W/m2
02:03 61.7 °F /  16.5 °C 45.3 °F /  7.4 °C 30.2in /  1022.7hPa West 2mph /  3.2km/h 4mph /  6.4km/h 55% 0in /  0.0mm 0 W/m2
02:08 61.7 °F /  16.5 °C 45.3 °F /  7.4 °C 30.2in /  1022.7hPa WNW 2.9mph /  4.7km/h 5mph /  8km/h 55% 0in /  0.0mm 0 W/m2
02:13 61.5 °F /  16.4 °C 45.1 °F /  7.3 °C 30.2in /  1022.7hPa NW 2.9mph /  4.7km/h 6mph /  9.7km/h 55% 0in /  0.0mm 0 W/m2
02:18 61.5 °F /  16.4 °C 45.1 °F /  7.3 °C 30.2in /  1022.7hPa WNW 2mph /  3.2km/h 4mph /  6.4km/h 55% 0in /  0.0mm 0 W/m2
02:23 61.3 °F /  16.3 °C 45 °F /  7.2 °C 30.2in /  1022.4hPa WNW 2mph /  3.2km/h 4mph /  6.4km/h 55% 0in /  0.0mm 0 W/m2
02:28 61.3 °F /  16.3 °C 45 °F /  7.2 °C 30.2in /  1022.4hPa West 0.9mph /  1.4km/h 3mph /  4.8km/h 55% 0in /  0.0mm 0 W/m2
02:33 61.3 °F /  16.3 °C 45 °F /  7.2 °C 30.2in /  1022.4hPa West 0.9mph /  1.4km/h 3mph /  4.8km/h 55% 0in /  0.0mm 0 W/m2
02:38 61.2 °F /  16.2 °C 45.3 °F /  7.4 °C 30.2in /  1022.4hPa WNW 0.9mph /  1.4km/h 2mph /  3.2km/h 56% 0in /  0.0mm 0 W/m2
02:43 61.2 °F /  16.2 °C 45.3 °F /  7.4 °C 30.2in /  1022.4hPa Calm   3mph /  4.8km/h 56% 0in /  0.0mm 0 W/m2
02:48 61 °F /  16.1 °C 45.1 °F /  7.3 °C 30.2in /  1022.4hPa WNW 6.9mph /  11.1km/h 7mph /  11.3km/h 56% 0in /  0.0mm 0 W/m2
02:53 61 °F /  16.1 °C 45.1 °F /  7.3 °C 30.2in /  1022.4hPa West 0.9mph /  1.4km/h 3mph /  4.8km/h 56% 0in /  0.0mm 0 W/m2
02:58 61 °F /  16.1 °C 45.1 °F /  7.3 °C 30.2in /  1022.4hPa WNW 0.9mph /  1.4km/h 6mph /  9.7km/h 56% 0in /  0.0mm 0 W/m2
03:03 60.8 °F /  16 °C 45.5 °F /  7.5 °C 30.2in /  1022.4hPa WSW 2mph /  3.2km/h 2mph /  3.2km/h 57% 0in /  0.0mm 0 W/m2
03:08 60.6 °F /  15.9 °C 45.3 °F /  7.4 °C 30.2in /  1022.4hPa Calm   1mph /  1.6km/h 57% 0in /  0.0mm 0 W/m2
03:13 60.4 °F /  15.8 °C 45.7 °F /  7.6 °C 30.2in /  1022.4hPa South 0.9mph /  1.4km/h 2mph /  3.2km/h 58% 0in /  0.0mm 0 W/m2
03:18 60.3 °F /  15.7 °C 45.5 °F /  7.5 °C 30.2in /  1022.4hPa Calm   2mph /  3.2km/h 58% 0in /  0.0mm 0 W/m2
03:23 59.9 °F /  15.5 °C 45.5 °F /  7.5 °C 30.2in /  1022.4hPa South 0.9mph /  1.4km/h 2mph /  3.2km/h 59% 0in /  0.0mm 0 W/m2
03:28 59.7 °F /  15.4 °C 45.3 °F /  7.4 °C 30.2in /  1022.0hPa SSW 0.9mph /  1.4km/h 3mph /  4.8km/h 59% 0in /  0.0mm 0 W/m2
03:33 59.5 °F /  15.3 °C 45.7 °F /  7.6 °C 30.2in /  1022.0hPa Calm   1mph /  1.6km/h 60% 0in /  0.0mm 0 W/m2
03:38 59.4 °F /  15.2 °C 45 °F /  7.2 °C 30.2in /  1022.0hPa SW 0.9mph /  1.4km/h 2mph /  3.2km/h 59% 0in /  0.0mm 0 W/m2
03:43 59.4 °F /  15.2 °C 45.5 °F /  7.5 °C 30.2in /  1022.0hPa WSW 0.9mph /  1.4km/h 3mph /  4.8km/h 60% 0in /  0.0mm 0 W/m2
03:48 59.4 °F /  15.2 °C 45 °F /  7.2 °C 30.2in /  1022.0hPa WSW 2mph /  3.2km/h 3mph /  4.8km/h 59% 0in /  0.0mm 0 W/m2
03:53 59.4 °F /  15.2 °C 45.5 °F /  7.5 °C 30.2in /  1022.0hPa SW 2mph /  3.2km/h 2mph /  3.2km/h 60% 0in /  0.0mm 0 W/m2
03:58 59.4 °F /  15.2 °C 45.5 °F /  7.5 °C 30.2in /  1022.0hPa Calm   2mph /  3.2km/h 60% 0in /  0.0mm 0 W/m2
04:03 59.2 °F /  15.1 °C 45.7 °F /  7.6 °C 30.2in /  1022.0hPa WNW 0.9mph /  1.4km/h 2mph /  3.2km/h 61% 0in /  0.0mm 0 W/m2
04:08 58.8 °F /  14.9 °C 45.3 °F /  7.4 °C 30.2in /  1022.0hPa Calm   3mph /  4.8km/h 61% 0in /  0.0mm 0 W/m2
04:13 58.6 °F /  14.8 °C 45.7 °F /  7.6 °C 30.2in /  1022.0hPa SW 0.9mph /  1.4km/h 2mph /  3.2km/h 62% 0in /  0.0mm 0 W/m2
04:18 58.5 °F /  14.7 °C 45.5 °F /  7.5 °C 30.2in /  1022.0hPa Calm   3mph /  4.8km/h 62% 0in /  0.0mm 0 W/m2
04:23 58.5 °F /  14.7 °C 45.1 °F /  7.3 °C 30.2in /  1022.0hPa NW 2.9mph /  4.7km/h 3mph /  4.8km/h 61% 0in /  0.0mm 0 W/m2
04:28 58.6 °F /  14.8 °C 45.7 °F /  7.6 °C 30.2in /  1022.0hPa WNW 0.9mph /  1.4km/h 2mph /  3.2km/h 62% 0in /  0.0mm 0 W/m2
04:33 58.6 °F /  14.8 °C 45.7 °F /  7.6 °C 30.2in /  1022.0hPa NW 0.9mph /  1.4km/h 4mph /  6.4km/h 62% 0in /  0.0mm 0 W/m2
04:38 58.5 °F /  14.7 °C 45.1 °F /  7.3 °C 30.2in /  1022.0hPa Calm   2mph /  3.2km/h 61% 0in /  0.0mm 0 W/m2
04:43 58.5 °F /  14.7 °C 45.1 °F /  7.3 °C 30.2in /  1022.0hPa South 0.9mph /  1.4km/h 3mph /  4.8km/h 61% 0in /  0.0mm 0 W/m2
04:48 58.6 °F /  14.8 °C 45.3 °F /  7.4 °C 30.2in /  1022.0hPa WSW 0.9mph /  1.4km/h 3mph /  4.8km/h 61% 0in /  0.0mm 0 W/m2
04:53 58.6 °F /  14.8 °C 45.3 °F /  7.4 °C 30.2in /  1021.7hPa Calm   2mph /  3.2km/h 61% 0in /  0.0mm 0 W/m2
04:58 58.6 °F /  14.8 °C 45.3 °F /  7.4 °C 30.2in /  1021.7hPa Calm   3mph /  4.8km/h 61% 0in /  0.0mm 0 W/m2
05:03 58.6 °F /  14.8 °C 45.3 °F /  7.4 °C 30.2in /  1021.7hPa WSW 0.9mph /  1.4km/h 2mph /  3.2km/h 61% 0in /  0.0mm 0 W/m2
05:08 58.6 °F /  14.8 °C 45.3 °F /  7.4 °C 30.2in /  1021.3hPa West 2mph /  3.2km/h 6mph /  9.7km/h 61% 0in /  0.0mm 0 W/m2
05:13 58.6 °F /  14.8 °C 45.3 °F /  7.4 °C 30.2in /  1021.3hPa WNW 2mph /  3.2km/h 4mph /  6.4km/h 61% 0in /  0.0mm 0 W/m2
05:18 58.8 °F /  14.9 °C 45.3 °F /  7.4 °C 30.2in /  1021.3hPa West 0.9mph /  1.4km/h 4mph /  6.4km/h 61% 0in /  0.0mm 0 W/m2
05:23 58.8 °F /  14.9 °C 45.3 °F /  7.4 °C 30.2in /  1021.7hPa West 0.9mph /  1.4km/h 3mph /  4.8km/h 61% 0in /  0.0mm 0 W/m2
05:28 58.6 °F /  14.8 °C 45.3 °F /  7.4 °C 30.2in /  1021.3hPa WSW 2.9mph /  4.7km/h 4mph /  6.4km/h 61% 0in /  0.0mm 0 W/m2
05:33 58.6 °F /  14.8 °C 45.3 °F /  7.4 °C 30.2in /  1021.3hPa West 2mph /  3.2km/h 3mph /  4.8km/h 61% 0in /  0.0mm 0 W/m2
05:38 58.5 °F /  14.7 °C 45.1 °F /  7.3 °C 30.2in /  1021.3hPa West 2mph /  3.2km/h 4mph /  6.4km/h 61% 0in /  0.0mm 0 W/m2
05:43 58.5 °F /  14.7 °C 45.1 °F /  7.3 °C 30.2in /  1021.3hPa West 2mph /  3.2km/h 3mph /  4.8km/h 61% 0in /  0.0mm 0 W/m2
05:48 58.3 °F /  14.6 °C 45.3 °F /  7.4 °C 30.2in /  1021.3hPa WSW 2mph /  3.2km/h 4mph /  6.4km/h 62% 0in /  0.0mm 0 W/m2
05:53 58.3 °F /  14.6 °C 45.3 °F /  7.4 °C 30.2in /  1021.3hPa NNW 2mph /  3.2km/h 4mph /  6.4km/h 62% 0in /  0.0mm 0 W/m2
05:58 58.3 °F /  14.6 °C 45.3 °F /  7.4 °C 30.2in /  1021.3hPa Calm   1mph /  1.6km/h 62% 0in /  0.0mm 0 W/m2
06:03 57.9 °F /  14.4 °C 45.3 °F /  7.4 °C 30.2in /  1021.3hPa WNW 0.9mph /  1.4km/h 4mph /  6.4km/h 63% 0in /  0.0mm 0 W/m2
06:08 57.7 °F /  14.3 °C 45.3 °F /  7.4 °C 30.2in /  1021.7hPa NW 0.9mph /  1.4km/h 3mph /  4.8km/h 63% 0in /  0.0mm 0 W/m2
06:13 57.6 °F /  14.2 °C 45.1 °F /  7.3 °C 30.2in /  1021.7hPa ENE 0.9mph /  1.4km/h 2mph /  3.2km/h 63% 0in /  0.0mm 0 W/m2
06:18 57.7 °F /  14.3 °C 45.3 °F /  7.4 °C 30.2in /  1021.7hPa SW 0.9mph /  1.4km/h 1mph /  1.6km/h 63% 0in /  0.0mm 5 W/m2
06:23 57.7 °F /  14.3 °C 45.3 °F /  7.4 °C 30.2in /  1021.7hPa Calm   2mph /  3.2km/h 63% 0in /  0.0mm 7 W/m2
06:28 57.6 °F /  14.2 °C 45.1 °F /  7.3 °C 30.2in /  1021.7hPa Calm   2mph /  3.2km/h 63% 0in /  0.0mm 7 W/m2
06:33 57.6 °F /  14.2 °C 45.5 °F /  7.5 °C 30.2in /  1021.7hPa WSW 0.9mph /  1.4km/h 3mph /  4.8km/h 64% 0in /  0.0mm 9 W/m2
06:38 57.4 °F /  14.1 °C 45.7 °F /  7.6 °C 30.2in /  1021.7hPa WSW 0.9mph /  1.4km/h 2mph /  3.2km/h 65% 0in /  0.0mm 12 W/m2
06:43 57.2 °F /  14 °C 45.5 °F /  7.5 °C 30.2in /  1021.7hPa WSW 0.9mph /  1.4km/h 3mph /  4.8km/h 65% 0in /  0.0mm 14 W/m2
06:48 57.4 °F /  14.1 °C 45.3 °F /  7.4 °C 30.2in /  1021.7hPa West 2.9mph /  4.7km/h 3mph /  4.8km/h 64% 0in /  0.0mm 14 W/m2
06:53 57.7 °F /  14.3 °C 45.3 °F /  7.4 °C 30.2in /  1021.7hPa WNW 2.9mph /  4.7km/h 5mph /  8km/h 63% 0in /  0.0mm 18 W/m2
06:58 57.9 °F /  14.4 °C 45.3 °F /  7.4 °C 30.2in /  1021.7hPa WSW 0.9mph /  1.4km/h 3mph /  4.8km/h 63% 0in /  0.0mm 18 W/m2
07:03 57.9 °F /  14.4 °C 45 °F /  7.2 °C 30.2in /  1021.7hPa WSW 0.9mph /  1.4km/h 2mph /  3.2km/h 62% 0in /  0.0mm 19 W/m2
07:08 58.1 °F /  14.5 °C 45.1 °F /  7.3 °C 30.2in /  1022.0hPa WNW 2mph /  3.2km/h 4mph /  6.4km/h 62% 0in /  0.0mm 21 W/m2
07:13 58.3 °F /  14.6 °C 45.3 °F /  7.4 °C 30.2in /  1022.0hPa Calm   4mph /  6.4km/h 62% 0in /  0.0mm 21 W/m2
07:18 58.3 °F /  14.6 °C 45.3 °F /  7.4 °C 30.2in /  1022.0hPa NNW 0.9mph /  1.4km/h 2mph /  3.2km/h 62% 0in /  0.0mm 23 W/m2
07:23 58.5 °F /  14.7 °C 45.5 °F /  7.5 °C 30.2in /  1022.0hPa NW 0.9mph /  1.4km/h 2mph /  3.2km/h 62% 0in /  0.0mm 25 W/m2
07:28 58.5 °F /  14.7 °C 45.5 °F /  7.5 °C 30.2in /  1022.0hPa Calm   2mph /  3.2km/h 62% 0in /  0.0mm 74 W/m2
07:33 58.6 °F /  14.8 °C 45.7 °F /  7.6 °C 30.2in /  1022.0hPa NW 0.9mph /  1.4km/h 2mph /  3.2km/h 62% 0in /  0.0mm 97 W/m2
07:38 59 °F /  15 °C 45.5 °F /  7.5 °C 30.2in /  1022.0hPa NW 2mph /  3.2km/h 7mph /  11.3km/h 61% 0in /  0.0mm 111 W/m2
07:43 59.5 °F /  15.3 °C 45.7 °F /  7.6 °C 30.2in /  1022.0hPa West 2mph /  3.2km/h 3mph /  4.8km/h 60% 0in /  0.0mm 125 W/m2
07:48 59.9 °F /  15.5 °C 46 °F /  7.8 °C 30.2in /  1022.0hPa WNW 2mph /  3.2km/h 7mph /  11.3km/h 60% 0in /  0.0mm 139 W/m2
07:53 60.3 °F /  15.7 °C 45.9 °F /  7.7 °C 30.2in /  1022.0hPa NNW 2.9mph /  4.7km/h 4mph /  6.4km/h 59% 0in /  0.0mm 155 W/m2
07:58 60.6 °F /  15.9 °C 46.2 °F /  7.9 °C 30.2in /  1022.0hPa ENE 2.9mph /  4.7km/h 6mph /  9.7km/h 59% 0in /  0.0mm 174 W/m2
08:03 60.8 °F /  16 °C 45.9 °F /  7.7 °C 30.2in /  1022.0hPa NNE 2mph /  3.2km/h 3mph /  4.8km/h 58% 0in /  0.0mm 188 W/m2
08:08 61.2 °F /  16.2 °C 46.2 °F /  7.9 °C 30.2in /  1022.0hPa East 0.9mph /  1.4km/h 6mph /  9.7km/h 58% 0in /  0.0mm 202 W/m2
08:13 61.5 °F /  16.4 °C 46.2 °F /  7.9 °C 30.2in /  1022.4hPa SE 2mph /  3.2km/h 3mph /  4.8km/h 57% 0in /  0.0mm 220 W/m2
08:18 61.9 °F /  16.6 °C 46 °F /  7.8 °C 30.2in /  1022.4hPa North 0.9mph /  1.4km/h 7mph /  11.3km/h 56% 0in /  0.0mm 200 W/m2
08:23 62.1 °F /  16.7 °C 46.6 °F /  8.1 °C 30.2in /  1022.4hPa NE 0.9mph /  1.4km/h 4mph /  6.4km/h 57% 0in /  0.0mm 100 W/m2
08:28 62.2 °F /  16.8 °C 46.4 °F /  8 °C 30.2in /  1022.4hPa ENE 0.9mph /  1.4km/h 8mph /  12.9km/h 56% 0in /  0.0mm 42 W/m2
08:33 62.4 °F /  16.9 °C 46.6 °F /  8.1 °C 30.2in /  1022.4hPa ENE 0.9mph /  1.4km/h 3mph /  4.8km/h 56% 0in /  0.0mm 39 W/m2
08:38 62.8 °F /  17.1 °C 46.9 °F /  8.3 °C 30.2in /  1022.4hPa WNW 0.9mph /  1.4km/h 8mph /  12.9km/h 56% 0in /  0.0mm 39 W/m2
08:43 63 °F /  17.2 °C 46.6 °F /  8.1 °C 30.2in /  1022.0hPa West 2mph /  3.2km/h 5mph /  8km/h 55% 0in /  0.0mm 39 W/m2
08:48 62.8 °F /  17.1 °C 46.9 °F /  8.3 °C 30.2in /  1022.0hPa North 0.9mph /  1.4km/h 8mph /  12.9km/h 56% 0in /  0.0mm 39 W/m2
08:53 63.1 °F /  17.3 °C 46.8 °F /  8.2 °C 30.2in /  1022.0hPa NNW 2mph /  3.2km/h 4mph /  6.4km/h 55% 0in /  0.0mm 39 W/m2
08:58 63.7 °F /  17.6 °C 47.3 °F /  8.5 °C 30.2in /  1022.0hPa North 0.9mph /  1.4km/h 8mph /  12.9km/h 55% 0in /  0.0mm 39 W/m2
09:03 64 °F /  17.8 °C 47.5 °F /  8.6 °C 30.2in /  1022.0hPa NNW 2mph /  3.2km/h 4mph /  6.4km/h 55% 0in /  0.0mm 39 W/m2
09:08 64.6 °F /  18.1 °C 48 °F /  8.9 °C 30.2in /  1022.0hPa Calm   2mph /  3.2km/h 55% 0in /  0.0mm 39 W/m2
09:13 64.9 °F /  18.3 °C 47.5 °F /  8.6 °C 30.2in /  1022.0hPa West 2mph /  3.2km/h 3mph /  4.8km/h 53% 0in /  0.0mm 39 W/m2
09:18 65.3 °F /  18.5 °C 47.3 °F /  8.5 °C 30.2in /  1022.0hPa ESE 0.9mph /  1.4km/h 4mph /  6.4km/h 52% 0in /  0.0mm 39 W/m2
09:23 65.5 °F /  18.6 °C 47.5 °F /  8.6 °C 30.2in /  1022.0hPa East 4mph /  6.4km/h 6mph /  9.7km/h 52% 0in /  0.0mm 39 W/m2
09:28 65.7 °F /  18.7 °C 47.5 °F /  8.6 °C 30.2in /  1022.0hPa East 2mph /  3.2km/h 9mph /  14.5km/h 52% 0in /  0.0mm 39 W/m2
09:33 65.8 °F /  18.8 °C 47.7 °F /  8.7 °C 30.2in /  1022.0hPa WNW 2.9mph /  4.7km/h 3mph /  4.8km/h 52% 0in /  0.0mm 40 W/m2
09:38 66 °F /  18.9 °C 47.8 °F /  8.8 °C 30.2in /  1022.0hPa ENE 2mph /  3.2km/h 5mph /  8km/h 52% 0in /  0.0mm 39 W/m2
09:43 66.4 °F /  19.1 °C 47.7 °F /  8.7 °C 30.2in /  1022.0hPa NNW 0.9mph /  1.4km/h 7mph /  11.3km/h 51% 0in /  0.0mm 40 W/m2
09:48 66.7 °F /  19.3 °C 47.5 °F /  8.6 °C 30.2in /  1022.0hPa WNW 2mph /  3.2km/h 3mph /  4.8km/h 50% 0in /  0.0mm 40 W/m2
09:53 66.9 °F /  19.4 °C 48.2 °F /  9 °C 30.2in /  1022.0hPa SE 2.9mph /  4.7km/h 6mph /  9.7km/h 51% 0in /  0.0mm 40 W/m2
09:58 67.3 °F /  19.6 °C 48 °F /  8.9 °C 30.2in /  1021.7hPa ENE 0.9mph /  1.4km/h 6mph /  9.7km/h 50% 0in /  0.0mm 42 W/m2
10:03 67.6 °F /  19.8 °C 48.4 °F /  9.1 °C 30.2in /  1022.0hPa NNW 2mph /  3.2km/h 4mph /  6.4km/h 50% 0in /  0.0mm 44 W/m2
10:08 68 °F /  20 °C 48.2 °F /  9 °C 30.2in /  1022.0hPa ENE 2mph /  3.2km/h 9mph /  14.5km/h 49% 0in /  0.0mm 46 W/m2
10:13 68.4 °F /  20.2 °C 48.9 °F /  9.4 °C 30.2in /  1022.0hPa Calm   6mph /  9.7km/h 50% 0in /  0.0mm 251 W/m2
10:18 68.5 °F /  20.3 °C 48 °F /  8.9 °C 30.2in /  1021.7hPa East 4mph /  6.4km/h 9mph /  14.5km/h 48% 0in /  0.0mm 554 W/m2
10:23 68.7 °F /  20.4 °C 48.2 °F /  9 °C 30.2in /  1021.7hPa ENE 6mph /  9.7km/h 7mph /  11.3km/h 48% 0in /  0.0mm 566 W/m2
10:28 69.1 °F /  20.6 °C 48.6 °F /  9.2 °C 30.2in /  1021.7hPa WNW 0.9mph /  1.4km/h 2mph /  3.2km/h 48% 0in /  0.0mm 578 W/m2
10:33 69.3 °F /  20.7 °C 48.7 °F /  9.3 °C 30.2in /  1021.7hPa NE 2mph /  3.2km/h 7mph /  11.3km/h 48% 0in /  0.0mm 592 W/m2
10:38 69.8 °F /  21 °C 48.7 °F /  9.3 °C 30.2in /  1021.7hPa NW 2mph /  3.2km/h 5mph /  8km/h 47% 0in /  0.0mm 606 W/m2
10:43 70.2 °F /  21.2 °C 48.4 °F /  9.1 °C 30.2in /  1021.7hPa WNW 0.9mph /  1.4km/h 4mph /  6.4km/h 46% 0in /  0.0mm 615 W/m2
10:48 70.2 °F /  21.2 °C 48.9 °F /  9.4 °C 30.2in /  1021.7hPa ENE 0.9mph /  1.4km/h 7mph /  11.3km/h 47% 0in /  0.0mm 629 W/m2
10:53 70.7 °F /  21.5 °C 48.9 °F /  9.4 °C 30.2in /  1021.7hPa NNW 4mph /  6.4km/h 4mph /  6.4km/h 46% 0in /  0.0mm 640 W/m2
10:58 70.9 °F /  21.6 °C 50.2 °F /  10.1 °C 30.2in /  1021.7hPa SE 8.1mph /  13km/h 8mph /  12.9km/h 48% 0in /  0.0mm 647 W/m2
11:03 71.1 °F /  21.7 °C 49.8 °F /  9.9 °C 30.2in /  1021.7hPa ENE 2.9mph /  4.7km/h 5mph /  8km/h 47% 0in /  0.0mm 663 W/m2
11:08 71.6 °F /  22 °C 49.6 °F /  9.8 °C 30.2in /  1021.3hPa East 0.9mph /  1.4km/h 8mph /  12.9km/h 46% 0in /  0.0mm 671 W/m2
11:13 72 °F /  22.2 °C 49.5 °F /  9.7 °C 30.2in /  1021.3hPa East 2.9mph /  4.7km/h 9mph /  14.5km/h 45% 0in /  0.0mm 682 W/m2
11:18 72.1 °F /  22.3 °C 49.6 °F /  9.8 °C 30.2in /  1021.3hPa NNW 0.9mph /  1.4km/h 4mph /  6.4km/h 45% 0in /  0.0mm 687 W/m2
11:23 72.1 °F /  22.3 °C 50.7 °F /  10.4 °C 30.2in /  1021.3hPa NE 2mph /  3.2km/h 9mph /  14.5km/h 47% 0in /  0.0mm 698 W/m2
11:28 72.9 °F /  22.7 °C 50.9 °F /  10.5 °C 30.2in /  1021.3hPa North 4.9mph /  7.9km/h 9mph /  14.5km/h 46% 0in /  0.0mm 712 W/m2
11:33 72.9 °F /  22.7 °C 49.6 °F /  9.8 °C 30.2in /  1021.3hPa SE 2mph /  3.2km/h 5mph /  8km/h 44% 0in /  0.0mm 722 W/m2
11:38 73.4 °F /  23 °C 50.2 °F /  10.1 °C 30.2in /  1021.3hPa North 4mph /  6.4km/h 9mph /  14.5km/h 44% 0in /  0.0mm 731 W/m2
11:44 73.8 °F /  23.2 °C 50.5 °F /  10.3 °C 30.2in /  1021.3hPa NNW 2mph /  3.2km/h 4mph /  6.4km/h 44% 0in /  0.0mm 742 W/m2
11:49 74.1 °F /  23.4 °C 50.9 °F /  10.5 °C 30.2in /  1021.3hPa Calm   6mph /  9.7km/h 44% 0in /  0.0mm 752 W/m2
11:54 74.8 °F /  23.8 °C 50.9 °F /  10.5 °C 30.2in /  1021.3hPa East 4mph /  6.4km/h 6mph /  9.7km/h 43% 0in /  0.0mm 759 W/m2
11:59 75.2 °F /  24 °C 50.5 °F /  10.3 °C 30.2in /  1021.3hPa ENE 4mph /  6.4km/h 8mph /  12.9km/h 42% 0in /  0.0mm 765 W/m2
12:04 74.8 °F /  23.8 °C 50.2 °F /  10.1 °C 30.2in /  1021.0hPa NNE 2mph /  3.2km/h 5mph /  8km/h 42% 0in /  0.0mm 768 W/m2
12:09 75 °F /  23.9 °C 50.4 °F /  10.2 °C 30.2in /  1021.0hPa North 2.9mph /  4.7km/h 4mph /  6.4km/h 42% 0in /  0.0mm 777 W/m2
12:14 75.4 °F /  24.1 °C 50.7 °F /  10.4 °C 30.2in /  1021.0hPa NE 4mph /  6.4km/h 6mph /  9.7km/h 42% 0in /  0.0mm 788 W/m2
12:19 75.9 °F /  24.4 °C 51.8 °F /  11 °C 30.2in /  1021.0hPa West 2.9mph /  4.7km/h 5mph /  8km/h 43% 0in /  0.0mm 793 W/m2
12:24 76.3 °F /  24.6 °C 51.4 °F /  10.8 °C 30.1in /  1020.7hPa ENE 4mph /  6.4km/h 5mph /  8km/h 42% 0in /  0.0mm 805 W/m2
12:29 76.5 °F /  24.7 °C 50.4 °F /  10.2 °C 30.1in /  1020.7hPa ENE 2.9mph /  4.7km/h 8mph /  12.9km/h 40% 0in /  0.0mm 816 W/m2
12:34 76.5 °F /  24.7 °C 50.4 °F /  10.2 °C 30.1in /  1020.7hPa NE 2.9mph /  4.7km/h 6mph /  9.7km/h 40% 0in /  0.0mm 814 W/m2
12:39 76.6 °F /  24.8 °C 51.3 °F /  10.7 °C 30.1in /  1020.7hPa East 0.9mph /  1.4km/h 5mph /  8km/h 41% 0in /  0.0mm 817 W/m2
12:44 77.2 °F /  25.1 °C 50.4 °F /  10.2 °C 30.1in /  1020.7hPa ESE 4.9mph /  7.9km/h 8mph /  12.9km/h 39% 0in /  0.0mm 828 W/m2
12:49 77.5 °F /  25.3 °C 50 °F /  10 °C 30.1in /  1020.7hPa ENE 8.9mph /  14.3km/h 9mph /  14.5km/h 38% 0in /  0.0mm 826 W/m2
12:54 77.5 °F /  25.3 °C 50 °F /  10 °C 30.1in /  1020.3hPa NE 0.9mph /  1.4km/h 3mph /  4.8km/h 38% 0in /  0.0mm 831 W/m2
12:59 77.5 °F /  25.3 °C 49.3 °F /  9.6 °C 30.1in /  1020.7hPa ENE 4.9mph /  7.9km/h 8mph /  12.9km/h 37% 0in /  0.0mm 833 W/m2
13:04 77.5 °F /  25.3 °C 49.3 °F /  9.6 °C 30.1in /  1020.7hPa NNW 2.9mph /  4.7km/h 7mph /  11.3km/h 37% 0in /  0.0mm 833 W/m2
13:09 77.5 °F /  25.3 °C 49.3 °F /  9.6 °C 30.1in /  1020.3hPa ESE 2mph /  3.2km/h 10mph /  16.1km/h 37% 0in /  0.0mm 837 W/m2
13:14 77.9 °F /  25.5 °C 49.5 °F /  9.7 °C 30.1in /  1020.3hPa North 4mph /  6.4km/h 5mph /  8km/h 37% 0in /  0.0mm 842 W/m2
13:19 78.1 °F /  25.6 °C 49.6 °F /  9.8 °C 30.1in /  1020.3hPa ESE 0.9mph /  1.4km/h 5mph /  8km/h 37% 0in /  0.0mm 844 W/m2
13:24 78.3 °F /  25.7 °C 49.8 °F /  9.9 °C 30.1in /  1020.3hPa ENE 8.9mph /  14.3km/h 9mph /  14.5km/h 37% 0in /  0.0mm 844 W/m2
13:29 78.4 °F /  25.8 °C 51.4 °F /  10.8 °C 30.1in /  1020.3hPa East 2mph /  3.2km/h 4mph /  6.4km/h 39% 0in /  0.0mm 849 W/m2
13:34 78.6 °F /  25.9 °C 50.9 °F /  10.5 °C 30.1in /  1020.0hPa North 2.9mph /  4.7km/h 5mph /  8km/h 38% 0in /  0.0mm 847 W/m2
13:39 79 °F /  26.1 °C 51.3 °F /  10.7 °C 30.1in /  1020.0hPa SE 2.9mph /  4.7km/h 4mph /  6.4km/h 38% 0in /  0.0mm 849 W/m2
13:44 79.3 °F /  26.3 °C 50 °F /  10 °C 30.1in /  1020.0hPa ENE 2.9mph /  4.7km/h 7mph /  11.3km/h 36% 0in /  0.0mm 844 W/m2
13:49 79.7 °F /  26.5 °C 49.6 °F /  9.8 °C 30.1in /  1020.0hPa NNE 0.9mph /  1.4km/h 4mph /  6.4km/h 35% 0in /  0.0mm 851 W/m2
13:54 79.3 °F /  26.3 °C 50 °F /  10 °C 30.1in /  1020.0hPa ENE 2.9mph /  4.7km/h 11mph /  17.7km/h 36% 0in /  0.0mm 851 W/m2
13:59 79.5 °F /  26.4 °C 50.2 °F /  10.1 °C 30.1in /  1020.0hPa North 0.9mph /  1.4km/h 9mph /  14.5km/h 36% 0in /  0.0mm 847 W/m2
14:04 79.9 °F /  26.6 °C 49.8 °F /  9.9 °C 30.1in /  1020.0hPa East 2.9mph /  4.7km/h 6mph /  9.7km/h 35% 0in /  0.0mm 826 W/m2
14:09 79.3 °F /  26.3 °C 48.6 °F /  9.2 °C 30.1in /  1020.0hPa WNW 0.9mph /  1.4km/h 6mph /  9.7km/h 34% 0in /  0.0mm 772 W/m2
14:14 79.2 °F /  26.2 °C 48.4 °F /  9.1 °C 30.1in /  1020.0hPa East 2mph /  3.2km/h 6mph /  9.7km/h 34% 0in /  0.0mm 865 W/m2
14:19 79 °F /  26.1 °C 49.8 °F /  9.9 °C 30.1in /  1020.0hPa ENE 2mph /  3.2km/h 9mph /  14.5km/h 36% 0in /  0.0mm 810 W/m2
14:24 79 °F /  26.1 °C 48.9 °F /  9.4 °C 30.1in /  1020.0hPa ESE 2mph /  3.2km/h 11mph /  17.7km/h 35% 0in /  0.0mm 809 W/m2
14:29 79 °F /  26.1 °C 50.5 °F /  10.3 °C 30.1in /  1019.6hPa SE 2mph /  3.2km/h 3mph /  4.8km/h 37% 0in /  0.0mm 770 W/m2
14:34 79.7 °F /  26.5 °C 50.4 °F /  10.2 °C 30.1in /  1019.6hPa ESE 4mph /  6.4km/h 11mph /  17.7km/h 36% 0in /  0.0mm 786 W/m2
14:39 79.9 °F /  26.6 °C 49.8 °F /  9.9 °C 30.1in /  1019.6hPa NNW 2mph /  3.2km/h 6mph /  9.7km/h 35% 0in /  0.0mm 816 W/m2
14:44 79.9 °F /  26.6 °C 49.8 °F /  9.9 °C 30.1in /  1019.6hPa East 0.9mph /  1.4km/h 10mph /  16.1km/h 35% 0in /  0.0mm 814 W/m2
14:49 79.9 °F /  26.6 °C 50.5 °F /  10.3 °C 30.1in /  1019.6hPa ESE 2.9mph /  4.7km/h 3mph /  4.8km/h 36% 0in /  0.0mm 831 W/m2
14:54 80.1 °F /  26.7 °C 50 °F /  10 °C 30.1in /  1019.6hPa ENE 6mph /  9.7km/h 9mph /  14.5km/h 35% 0in /  0.0mm 837 W/m2
14:59 80.2 °F /  26.8 °C 50.2 °F /  10.1 °C 30.1in /  1019.6hPa NE 6.9mph /  11.1km/h 9mph /  14.5km/h 35% 0in /  0.0mm 830 W/m2
15:04 80.1 °F /  26.7 °C 50.7 °F /  10.4 °C 30.1in /  1019.6hPa West 4mph /  6.4km/h 5mph /  8km/h 36% 0in /  0.0mm 830 W/m2
15:09 80.1 °F /  26.7 °C 50.7 °F /  10.4 °C 30.1in /  1019.6hPa East 6.9mph /  11.1km/h 10mph /  16.1km/h 36% 0in /  0.0mm 821 W/m2
15:14 80.2 °F /  26.8 °C 50.2 °F /  10.1 °C 30.1in /  1019.6hPa NNW 2mph /  3.2km/h 4mph /  6.4km/h 35% 0in /  0.0mm 810 W/m2
15:19 80.8 °F /  27.1 °C 50.5 °F /  10.3 °C 30.1in /  1019.3hPa NNW 0.9mph /  1.4km/h 10mph /  16.1km/h 35% 0in /  0.0mm 814 W/m2
15:24 80.8 °F /  27.1 °C 50.5 °F /  10.3 °C 30.1in /  1019.3hPa NNW 2.9mph /  4.7km/h 10mph /  16.1km/h 35% 0in /  0.0mm 807 W/m2
15:29 81.1 °F /  27.3 °C 50.2 °F /  10.1 °C 30.1in /  1019.3hPa NNW 0.9mph /  1.4km/h 6mph /  9.7km/h 34% 0in /  0.0mm 796 W/m2
15:34 81.5 °F /  27.5 °C 50.4 °F /  10.2 °C 30.1in /  1019.3hPa East 2.9mph /  4.7km/h 6mph /  9.7km/h 34% 0in /  0.0mm 795 W/m2
15:39 81.7 °F /  27.6 °C 50.5 °F /  10.3 °C 30.1in /  1019.3hPa SW 2.9mph /  4.7km/h 4mph /  6.4km/h 34% 0in /  0.0mm 786 W/m2
15:44 81.9 °F /  27.7 °C 50 °F /  10 °C 30.1in /  1019.3hPa Calm   4mph /  6.4km/h 33% 0in /  0.0mm 779 W/m2
15:49 81.7 °F /  27.6 °C 49.8 °F /  9.9 °C 30.1in /  1019.0hPa WNW 2mph /  3.2km/h 3mph /  4.8km/h 33% 0in /  0.0mm 773 W/m2
15:54 81.3 °F /  27.4 °C 49.5 °F /  9.7 °C 30.1in /  1019.0hPa ENE 4mph /  6.4km/h 8mph /  12.9km/h 33% 0in /  0.0mm 758 W/m2
15:59 81.7 °F /  27.6 °C 49.8 °F /  9.9 °C 30.1in /  1019.0hPa NE 2mph /  3.2km/h 5mph /  8km/h 33% 0in /  0.0mm 742 W/m2
16:04 81.9 °F /  27.7 °C 50.7 °F /  10.4 °C 30.1in /  1019.0hPa East 2mph /  3.2km/h 8mph /  12.9km/h 34% 0in /  0.0mm 737 W/m2
16:09 81.9 °F /  27.7 °C 50.7 °F /  10.4 °C 30.1in /  1019.0hPa WSW 2mph /  3.2km/h 4mph /  6.4km/h 34% 0in /  0.0mm 728 W/m2
16:14 82 °F /  27.8 °C 50.2 °F /  10.1 °C 30.1in /  1019.0hPa WNW 2.9mph /  4.7km/h 8mph /  12.9km/h 33% 0in /  0.0mm 726 W/m2
16:19 82 °F /  27.8 °C 49.3 °F /  9.6 °C 30.1in /  1019.0hPa NE 2mph /  3.2km/h 3mph /  4.8km/h 32% 0in /  0.0mm 715 W/m2
16:24 82.2 °F /  27.9 °C 51.1 °F /  10.6 °C 30.1in /  1019.0hPa South 2.9mph /  4.7km/h 4mph /  6.4km/h 34% 0in /  0.0mm 703 W/m2
16:29 82.2 °F /  27.9 °C 49.5 °F /  9.7 °C 30.1in /  1019.0hPa NNW 4mph /  6.4km/h 9mph /  14.5km/h 32% 0in /  0.0mm 694 W/m2
16:34 82.2 °F /  27.9 °C 49.5 °F /  9.7 °C 30.1in /  1019.0hPa NE 0.9mph /  1.4km/h 3mph /  4.8km/h 32% 0in /  0.0mm 682 W/m2
16:39 82.8 °F /  28.2 °C 49.8 °F /  9.9 °C 30.1in /  1019.0hPa NNE 2.9mph /  4.7km/h 9mph /  14.5km/h 32% 0in /  0.0mm 671 W/m2
16:44 82.9 °F /  28.3 °C 49.3 °F /  9.6 °C 30.1in /  1019.0hPa ENE 2.9mph /  4.7km/h 6mph /  9.7km/h 31% 0in /  0.0mm 670 W/m2
16:49 82.9 °F /  28.3 °C 50 °F /  10 °C 30.1in /  1018.6hPa ESE 2.9mph /  4.7km/h 9mph /  14.5km/h 32% 0in /  0.0mm 661 W/m2
16:54 82.8 °F /  28.2 °C 49.8 °F /  9.9 °C 30.1in /  1018.6hPa North 2mph /  3.2km/h 8mph /  12.9km/h 32% 0in /  0.0mm 650 W/m2
16:59 82.8 °F /  28.2 °C 49.1 °F /  9.5 °C 30.1in /  1018.6hPa NW 2.9mph /  4.7km/h 6mph /  9.7km/h 31% 0in /  0.0mm 638 W/m2
17:04 82.2 °F /  27.9 °C 49.5 °F /  9.7 °C 30.1in /  1018.6hPa West 4mph /  6.4km/h 9mph /  14.5km/h 32% 0in /  0.0mm 612 W/m2
17:09 82.2 °F /  27.9 °C 49.5 °F /  9.7 °C 30.1in /  1018.6hPa ENE 4mph /  6.4km/h 6mph /  9.7km/h 32% 0in /  0.0mm 610 W/m2
17:14 82.2 °F /  27.9 °C 49.5 °F /  9.7 °C 30.1in /  1018.6hPa SE 2mph /  3.2km/h 8mph /  12.9km/h 32% 0in /  0.0mm 561 W/m2
17:19 82.6 °F /  28.1 °C 49.8 °F /  9.9 °C 30.1in /  1018.6hPa WSW 4.9mph /  7.9km/h 8mph /  12.9km/h 32% 0in /  0.0mm 589 W/m2
17:24 82.6 °F /  28.1 °C 49.8 °F /  9.9 °C 30.1in /  1018.6hPa SE 4mph /  6.4km/h 10mph /  16.1km/h 32% 0in /  0.0mm 570 W/m2
17:29 82.8 °F /  28.2 °C 50.7 °F /  10.4 °C 30.1in /  1018.6hPa ENE 2mph /  3.2km/h 2mph /  3.2km/h 33% 0in /  0.0mm 561 W/m2
17:34 83.1 °F /  28.4 °C 50.2 °F /  10.1 °C 30.1in /  1018.6hPa East 2.9mph /  4.7km/h 10mph /  16.1km/h 32% 0in /  0.0mm 545 W/m2
17:39 82.8 °F /  28.2 °C 49.8 °F /  9.9 °C 30.1in /  1018.3hPa Calm   5mph /  8km/h 32% 0in /  0.0mm 533 W/m2
17:44 82.9 °F /  28.3 °C 49.3 °F /  9.6 °C 30.1in /  1018.3hPa North 4.9mph /  7.9km/h 5mph /  8km/h 31% 0in /  0.0mm 517 W/m2
17:49 82.9 °F /  28.3 °C 49.3 °F /  9.6 °C 30.1in /  1018.3hPa NNW 4.9mph /  7.9km/h 6mph /  9.7km/h 31% 0in /  0.0mm 504 W/m2
17:54 82.9 °F /  28.3 °C 48.4 °F /  9.1 °C 30.1in /  1018.3hPa NNW 2mph /  3.2km/h 6mph /  9.7km/h 30% 0in /  0.0mm 490 W/m2
17:59 82.9 °F /  28.3 °C 49.3 °F /  9.6 °C 30.1in /  1018.3hPa WSW 11mph /  17.7km/h 11mph /  17.7km/h 31% 0in /  0.0mm 482 W/m2
18:04 82.6 °F /  28.1 °C 48.9 °F /  9.4 °C 30.1in /  1018.3hPa NNW 4mph /  6.4km/h 9mph /  14.5km/h 31% 0in /  0.0mm 471 W/m2
18:09 82.6 °F /  28.1 °C 48.9 °F /  9.4 °C 30.1in /  1018.3hPa ESE 2mph /  3.2km/h 4mph /  6.4km/h 31% 0in /  0.0mm 450 W/m2
18:14 82.9 °F /  28.3 °C 49.3 °F /  9.6 °C 30.1in /  1018.3hPa ESE 6.9mph /  11.1km/h 7mph /  11.3km/h 31% 0in /  0.0mm 438 W/m2
18:19 82.9 °F /  28.3 °C 48.4 °F /  9.1 °C 30.1in /  1018.3hPa West 6mph /  9.7km/h 6mph /  9.7km/h 30% 0in /  0.0mm 422 W/m2
18:24 82.8 °F /  28.2 °C 48.2 °F /  9 °C 30.1in /  1018.3hPa ESE 0.9mph /  1.4km/h 7mph /  11.3km/h 30% 0in /  0.0mm 406 W/m2
18:29 82.8 °F /  28.2 °C 48.2 °F /  9 °C 30.1in /  1018.0hPa NW 2.9mph /  4.7km/h 6mph /  9.7km/h 30% 0in /  0.0mm 394 W/m2
18:34 82.9 °F /  28.3 °C 48.4 °F /  9.1 °C 30.1in /  1018.3hPa West 2.9mph /  4.7km/h 5mph /  8km/h 30% 0in /  0.0mm 378 W/m2
18:39 83.1 °F /  28.4 °C 49.3 °F /  9.6 °C 30.1in /  1018.3hPa ENE 4.9mph /  7.9km/h 6mph /  9.7km/h 31% 0in /  0.0mm 364 W/m2
18:44 82.8 °F /  28.2 °C 49.8 °F /  9.9 °C 30.1in /  1018.3hPa NNW 0.9mph /  1.4km/h 7mph /  11.3km/h 32% 0in /  0.0mm 353 W/m2
18:49 82.2 °F /  27.9 °C 49.5 °F /  9.7 °C 30.1in /  1018.3hPa WNW 2mph /  3.2km/h 4mph /  6.4km/h 32% 0in /  0.0mm 334 W/m2
18:54 82.6 °F /  28.1 °C 48.9 °F /  9.4 °C 30.1in /  1018.3hPa South 0.9mph /  1.4km/h 4mph /  6.4km/h 31% 0in /  0.0mm 315 W/m2
18:59 82.4 °F /  28 °C 47.8 °F /  8.8 °C 30.1in /  1018.3hPa ENE 6mph /  9.7km/h 9mph /  14.5km/h 30% 0in /  0.0mm 287 W/m2
19:04 82.2 °F /  27.9 °C 48.6 °F /  9.2 °C 30.1in /  1018.3hPa NNW 4.9mph /  7.9km/h 8mph /  12.9km/h 31% 0in /  0.0mm 176 W/m2
19:09 82.6 °F /  28.1 °C 48 °F /  8.9 °C 30.1in /  1018.3hPa NNW 0.9mph /  1.4km/h 9mph /  14.5km/h 30% 0in /  0.0mm 60 W/m2
19:14 82.6 °F /  28.1 °C 48 °F /  8.9 °C 30.1in /  1018.3hPa ESE 2mph /  3.2km/h 7mph /  11.3km/h 30% 0in /  0.0mm 46 W/m2
19:19 82.4 °F /  28 °C 48.7 °F /  9.3 °C 30.1in /  1018.3hPa ESE 2mph /  3.2km/h 8mph /  12.9km/h 31% 0in /  0.0mm 44 W/m2
19:24 82.2 °F /  27.9 °C 48.6 °F /  9.2 °C 30.1in /  1018.3hPa ENE 4.9mph /  7.9km/h 10mph /  16.1km/h 31% 0in /  0.0mm 42 W/m2
19:29 81.9 °F /  27.7 °C 48.2 °F /  9 °C 30.1in /  1018.3hPa NNW 4mph /  6.4km/h 9mph /  14.5km/h 31% 0in /  0.0mm 39 W/m2
19:34 81.7 °F /  27.6 °C 47.3 °F /  8.5 °C 30.1in /  1018.3hPa NNW 2mph /  3.2km/h 10mph /  16.1km/h 30% 0in /  0.0mm 37 W/m2
19:39 81.5 °F /  27.5 °C 48 °F /  8.9 °C 30.1in /  1018.3hPa WNW 2mph /  3.2km/h 4mph /  6.4km/h 31% 0in /  0.0mm 35 W/m2
19:44 81 °F /  27.2 °C 47.5 °F /  8.6 °C 30.1in /  1018.3hPa NNE 4mph /  6.4km/h 6mph /  9.7km/h 31% 0in /  0.0mm 33 W/m2
19:49 80.8 °F /  27.1 °C 47.3 °F /  8.5 °C 30.1in /  1018.3hPa NNE 2mph /  3.2km/h 5mph /  8km/h 31% 0in /  0.0mm 32 W/m2
19:54 80.6 °F /  27 °C 48 °F /  8.9 °C 30.1in /  1018.3hPa WNW 0.9mph /  1.4km/h 4mph /  6.4km/h 32% 0in /  0.0mm 30 W/m2
19:59 80.4 °F /  26.9 °C 47.8 °F /  8.8 °C 30.1in /  1018.3hPa North 2mph /  3.2km/h 4mph /  6.4km/h 32% 0in /  0.0mm 30 W/m2
20:04 80.4 °F /  26.9 °C 47.8 °F /  8.8 °C 30.1in /  1018.3hPa ENE 4mph /  6.4km/h 4mph /  6.4km/h 32% 0in /  0.0mm 30 W/m2
20:09 80.1 °F /  26.7 °C 47.5 °F /  8.6 °C 30.1in /  1018.3hPa North 4mph /  6.4km/h 4mph /  6.4km/h 32% 0in /  0.0mm 26 W/m2
20:14 79.9 °F /  26.6 °C 47.3 °F /  8.5 °C 30.1in /  1018.3hPa ESE 2mph /  3.2km/h 4mph /  6.4km/h 32% 0in /  0.0mm 25 W/m2
20:19 79.3 °F /  26.3 °C 47.7 °F /  8.7 °C 30.1in /  1018.3hPa Calm   2mph /  3.2km/h 33% 0in /  0.0mm 23 W/m2
20:24 79 °F /  26.1 °C 47.5 °F /  8.6 °C 30.1in /  1018.3hPa East 4mph /  6.4km/h 5mph /  8km/h 33% 0in /  0.0mm 21 W/m2
20:29 78.6 °F /  25.9 °C 47.1 °F /  8.4 °C 30.1in /  1018.6hPa Calm   2mph /  3.2km/h 33% 0in /  0.0mm 19 W/m2
20:34 78.3 °F /  25.7 °C 46.8 °F /  8.2 °C 30.1in /  1018.6hPa North 0.9mph /  1.4km/h 3mph /  4.8km/h 33% 0in /  0.0mm 16 W/m2
20:39 77.9 °F /  25.5 °C 47.3 °F /  8.5 °C 30.1in /  1018.6hPa North 2mph /  3.2km/h 3mph /  4.8km/h 34% 0in /  0.0mm 16 W/m2
20:44 77.5 °F /  25.3 °C 46.9 °F /  8.3 °C 30.1in /  1018.6hPa NE 2mph /  3.2km/h 3mph /  4.8km/h 34% 0in /  0.0mm 12 W/m2
20:49 77.4 °F /  25.2 °C 46.8 °F /  8.2 °C 30.1in /  1018.6hPa Calm   2mph /  3.2km/h 34% 0in /  0.0mm 11 W/m2
20:54 77 °F /  25 °C 46.4 °F /  8 °C 30.1in /  1018.6hPa ENE 0.9mph /  1.4km/h 3mph /  4.8km/h 34% 0in /  0.0mm 9 W/m2
20:59 76.6 °F /  24.8 °C 46.9 °F /  8.3 °C 30.1in /  1018.6hPa North 2mph /  3.2km/h 5mph /  8km/h 35% 0in /  0.0mm 5 W/m2
21:04 76.5 °F /  24.7 °C 46.8 °F /  8.2 °C 30.1in /  1019.0hPa Calm   2mph /  3.2km/h 35% 0in /  0.0mm 0 W/m2
21:09 76.3 °F /  24.6 °C 47.3 °F /  8.5 °C 30.1in /  1019.0hPa Calm   5mph /  8km/h 36% 0in /  0.0mm 0 W/m2
21:14 75.9 °F /  24.4 °C 47.1 °F /  8.4 °C 30.1in /  1019.0hPa Calm   2mph /  3.2km/h 36% 0in /  0.0mm 0 W/m2
21:19 75.6 °F /  24.2 °C 47.5 °F /  8.6 °C 30.1in /  1019.0hPa WNW 0.9mph /  1.4km/h 2mph /  3.2km/h 37% 0in /  0.0mm 0 W/m2
21:25 75 °F /  23.9 °C 46.9 °F /  8.3 °C 30.1in /  1019.0hPa West 0.9mph /  1.4km/h 2mph /  3.2km/h 37% 0in /  0.0mm 0 W/m2
21:30 74.5 °F /  23.6 °C 47.8 °F /  8.8 °C 30.1in /  1019.0hPa West 0.9mph /  1.4km/h 1mph /  1.6km/h 39% 0in /  0.0mm 0 W/m2
21:35 73.9 °F /  23.3 °C 48 °F /  8.9 °C 30.1in /  1019.3hPa West 0.9mph /  1.4km/h 2mph /  3.2km/h 40% 0in /  0.0mm 0 W/m2
21:40 73.2 °F /  22.9 °C 48 °F /  8.9 °C 30.1in /  1019.3hPa West 0.9mph /  1.4km/h 2mph /  3.2km/h 41% 0in /  0.0mm 0 W/m2
21:45 72.9 °F /  22.7 °C 47.8 °F /  8.8 °C 30.1in /  1019.3hPa Calm   2mph /  3.2km/h 41% 0in /  0.0mm 0 W/m2
21:50 72.7 °F /  22.6 °C 47.7 °F /  8.7 °C 30.1in /  1019.3hPa Calm   2mph /  3.2km/h 41% 0in /  0.0mm 0 W/m2
21:55 72.3 °F /  22.4 °C 48 °F /  8.9 °C 30.1in /  1019.3hPa WNW 0.9mph /  1.4km/h 1mph /  1.6km/h 42% 0in /  0.0mm 0 W/m2
22:00 72 °F /  22.2 °C 47.7 °F /  8.7 °C 30.1in /  1019.6hPa Calm   2mph /  3.2km/h 42% 0in /  0.0mm 0 W/m2
22:05 71.6 °F /  22 °C 47.8 °F /  8.8 °C 30.1in /  1019.6hPa Calm   2mph /  3.2km/h 43% 0in /  0.0mm 0 W/m2
22:10 71.4 °F /  21.9 °C 47.1 °F /  8.4 °C 30.1in /  1019.6hPa NW 0.9mph /  1.4km/h 3mph /  4.8km/h 42% 0in /  0.0mm 0 W/m2
22:15 71.4 °F /  21.9 °C 46.6 °F /  8.1 °C 30.1in /  1019.6hPa WNW 0.9mph /  1.4km/h 4mph /  6.4km/h 41% 0in /  0.0mm 0 W/m2
22:20 71.4 °F /  21.9 °C 46.6 °F /  8.1 °C 30.1in /  1019.6hPa Calm   2mph /  3.2km/h 41% 0in /  0.0mm 0 W/m2
22:25 71.4 °F /  21.9 °C 46.6 °F /  8.1 °C 30.1in /  1019.6hPa Calm   2mph /  3.2km/h 41% 0in /  0.0mm 0 W/m2
22:30 71.4 °F /  21.9 °C 46.6 °F /  8.1 °C 30.1in /  1019.6hPa Calm   3mph /  4.8km/h 41% 0in /  0.0mm 0 W/m2
22:35 71.2 °F /  21.8 °C 46.9 °F /  8.3 °C 30.1in /  1019.6hPa WNW 0.9mph /  1.4km/h 2mph /  3.2km/h 42% 0in /  0.0mm 0 W/m2
22:40 71.1 °F /  21.7 °C 46.8 °F /  8.2 °C 30.1in /  1019.6hPa NW 0.9mph /  1.4km/h 2mph /  3.2km/h 42% 0in /  0.0mm 0 W/m2
22:45 70.7 °F /  21.5 °C 47.1 °F /  8.4 °C 30.1in /  1020.0hPa Calm   2mph /  3.2km/h 43% 0in /  0.0mm 0 W/m2
22:50 70.3 °F /  21.3 °C 46.8 °F /  8.2 °C 30.1in /  1019.6hPa South 2mph /  3.2km/h 2mph /  3.2km/h 43% 0in /  0.0mm 0 W/m2
22:55 70.3 °F /  21.3 °C 46.8 °F /  8.2 °C 30.1in /  1019.6hPa Calm   2mph /  3.2km/h 43% 0in /  0.0mm 0 W/m2
23:00 70.2 °F /  21.2 °C 46.6 °F /  8.1 °C 30.1in /  1020.0hPa Calm   3mph /  4.8km/h 43% 0in /  0.0mm 0 W/m2
23:05 69.8 °F /  21 °C 47.5 °F /  8.6 °C 30.1in /  1020.0hPa Calm   3mph /  4.8km/h 45% 0in /  0.0mm 0 W/m2
23:10 69.4 °F /  20.8 °C 47.8 °F /  8.8 °C 30.1in /  1020.0hPa WSW 0.9mph /  1.4km/h 1mph /  1.6km/h 46% 0in /  0.0mm 0 W/m2
23:15 69.1 °F /  20.6 °C 47.5 °F /  8.6 °C 30.1in /  1019.6hPa West 0.9mph /  1.4km/h 2mph /  3.2km/h 46% 0in /  0.0mm 0 W/m2
23:20 68.5 °F /  20.3 °C 46.9 °F /  8.3 °C 30.1in /  1020.0hPa Calm   2mph /  3.2km/h 46% 0in /  0.0mm 0 W/m2
23:25 68.4 °F /  20.2 °C 46.8 °F /  8.2 °C 30.1in /  1020.0hPa West 0.9mph /  1.4km/h 1mph /  1.6km/h 46% 0in /  0.0mm 0 W/m2
23:30 68.2 °F /  20.1 °C 47.1 °F /  8.4 °C 30.1in /  1020.0hPa West 0.9mph /  1.4km/h 2mph /  3.2km/h 47% 0in /  0.0mm 0 W/m2
23:35 68 °F /  20 °C 45.9 °F /  7.7 °C 30.1in /  1020.0hPa WSW 2mph /  3.2km/h 3mph /  4.8km/h 45% 0in /  0.0mm 0 W/m2
23:40 68.4 °F /  20.2 °C 46.2 °F /  7.9 °C 30.1in /  1020.0hPa West 0.9mph /  1.4km/h 6mph /  9.7km/h 45% 0in /  0.0mm 0 W/m2
23:45 68.5 °F /  20.3 °C 45.7 °F /  7.6 °C 30.1in /  1020.0hPa Calm   4mph /  6.4km/h 44% 0in /  0.0mm 0 W/m2
23:50 68.5 °F /  20.3 °C 45.7 °F /  7.6 °C 30.1in /  1020.0hPa West 2mph /  3.2km/h 3mph /  4.8km/h 44% 0in /  0.0mm 0 W/m2
23:55 68.7 °F /  20.4 °C 45.3 °F /  7.4 °C 30.1in /  1020.0hPa WNW 2.9mph /  4.7km/h 4mph /  6.4km/h 43% 0in /  0.0mm 0 W/m2
Juneau County Weather
Compliments of Weather Underground - 4 mb